Time;durP1;ratioP1;P1;durP2;ratioP2;P2;SDS_P1;SDS_P2;PMS_P1;PMS_P2;Temp;Humidity;BMP_temperature;BMP_pressure;BME280_temperature;BME280_humidity;BME280_pressure;Samples;Min_cycle;Max_cycle;Signal;HPM_P1;HPM_P2
2021/07/07 00:01:18;;;;;;;140.63;115.53;;;;;;;;;;5114468;28;20455;-58
2021/07/07 00:03:49;;;;;;;162.83;108.43;;;;;;;;;;5114691;28;20483;-56
2021/07/07 00:06:16;;;;;;;68.40;44.53;;;;;;;;;;5110586;28;20760;-57
2021/07/07 00:08:44;;;;;;;144.77;100.93;;;;;;;;;;5114666;28;20479;-54
2021/07/07 00:11:12;;;;;;;58.87;33.93;;;;;;;;;;5114289;28;20448;-57
2021/07/07 00:13:41;;;;;;;30.70;16.00;;;;;;;;;;5114087;28;20455;-57
2021/07/07 00:16:08;;;;;;;54.97;36.73;;;;;;;;;;5114726;28;20502;-57
2021/07/07 00:18:35;;;;;;;21.27;15.70;;;;;;;;;;5109785;28;20474;-57
2021/07/07 00:21:04;;;;;;;23.80;13.07;;;;;;;;;;5093483;28;20476;-57
2021/07/07 00:23:42;;;;;;;11.30;6.37;;;;;;;;;;5093844;28;20507;-54
2021/07/07 00:26:10;;;;;;;14.97;10.07;;;;;;;;;;5094072;28;20466;-61
2021/07/07 00:28:37;;;;;;;11.77;6.03;;;;;;;;;;5094462;28;20493;-58
2021/07/07 00:31:14;;;;;;;15.70;8.67;;;;;;;;;;5095317;28;20662;-58
2021/07/07 00:33:42;;;;;;;14.40;6.73;;;;;;;;;;5097582;28;20501;-56
2021/07/07 00:36:11;;;;;;;11.50;3.80;;;;;;;;;;5098083;28;20427;-56
2021/07/07 00:38:39;;;;;;;23.40;13.50;;;;;;;;;;5097987;28;20460;-55
2021/07/07 00:41:06;;;;;;;17.67;5.63;;;;;;;;;;5115138;28;20462;-52
2021/07/07 00:43:33;;;;;;;19.27;10.47;;;;;;;;;;5117289;28;20534;-56
2021/07/07 00:46:02;;;;;;;18.27;10.13;;;;;;;;;;5117855;28;20492;-54
2021/07/07 00:48:30;;;;;;;25.60;17.10;;;;;;;;;;5117885;28;20466;-59
2021/07/07 00:51:08;;;;;;;15.57;7.83;;;;;;;;;;5117733;28;20450;-58
2021/07/07 00:53:38;;;;;;;26.90;19.37;;;;;;;;;;5117942;28;20865;-52
2021/07/07 00:56:09;;;;;;;86.87;53.30;;;;;;;;;;5117424;28;20482;-57
2021/07/07 00:58:38;;;;;;;53.67;35.23;;;;;;;;;;5118198;28;20447;-54
2021/07/07 01:01:06;;;;;;;75.50;46.40;;;;;;;;;;5117776;28;20467;-56
2021/07/07 01:03:34;;;;;;;66.10;39.63;;;;;;;;;;5117180;28;20471;-57
2021/07/07 01:06:09;;;;;;;23.10;12.37;;;;;;;;;;5117680;28;20459;-55
2021/07/07 01:08:40;;;;;;;44.13;28.53;;;;;;;;;;5116694;28;20486;-55
2021/07/07 01:11:11;;;;;;;42.90;29.70;;;;;;;;;;5116926;28;20455;-53
2021/07/07 01:13:40;;;;;;;40.17;28.03;;;;;;;;;;5117189;28;20454;-56
2021/07/07 01:16:09;;;;;;;8.73;3.00;;;;;;;;;;5117384;28;20432;-57
2021/07/07 01:18:52;;;;;;;15.30;8.37;;;;;;;;;;5117426;28;20469;-56
2021/07/07 01:21:21;;;;;;;15.37;4.53;;;;;;;;;;5116991;28;20462;-55
2021/07/07 01:23:50;;;;;;;7.93;3.57;;;;;;;;;;5116632;28;20491;-54
2021/07/07 01:26:17;;;;;;;8.53;4.50;;;;;;;;;;5116833;28;20473;-54
2021/07/07 01:28:44;;;;;;;27.10;18.17;;;;;;;;;;5117011;28;20451;-61
2021/07/07 01:31:27;;;;;;;14.80;10.63;;;;;;;;;;5116603;28;20443;-57
2021/07/07 01:33:55;;;;;;;9.60;3.13;;;;;;;;;;5116091;28;20459;-56
2021/07/07 01:36:22;;;;;;;8.60;3.70;;;;;;;;;;5116355;28;20516;-54
2021/07/07 01:39:15;;;;;;;7.37;3.27;;;;;;;;;;5116764;28;20443;-56
2021/07/07 01:41:44;;;;;;;5.03;2.57;;;;;;;;;;5116234;28;20462;-53
2021/07/07 01:44:12;;;;;;;10.00;2.70;;;;;;;;;;5105558;28;20545;-53
2021/07/07 01:46:40;;;;;;;8.70;2.90;;;;;;;;;;5095446;28;20463;-52
2021/07/07 01:49:08;;;;;;;10.70;2.93;;;;;;;;;;5097365;28;20531;-55
2021/07/07 01:51:36;;;;;;;6.43;2.73;;;;;;;;;;5115473;28;20466;-55
2021/07/07 01:54:05;;;;;;;11.37;2.83;;;;;;;;;;5115417;28;20455;-53
2021/07/07 01:56:33;;;;;;;8.57;2.87;;;;;;;;;;5099441;28;20483;-54
2021/07/07 01:59:02;;;;;;;12.30;3.13;;;;;;;;;;5116368;28;20523;-57
2021/07/07 02:01:42;;;;;;;24.20;18.17;;;;;;;;;;5115821;28;20480;-54
2021/07/07 02:04:09;;;;;;;10.30;3.40;;;;;;;;;;5095291;28;20495;-53
2021/07/07 02:06:37;;;;;;;17.43;11.07;;;;;;;;;;5099778;28;20434;-55
2021/07/07 02:09:11;;;;;;;12.47;6.77;;;;;;;;;;5115903;28;20701;-57
2021/07/07 02:11:38;;;;;;;36.63;23.93;;;;;;;;;;5115503;28;20459;-55
2021/07/07 02:14:06;;;;;;;17.33;9.30;;;;;;;;;;5114952;28;20476;-56
2021/07/07 02:16:37;;;;;;;91.40;68.87;;;;;;;;;;5101549;28;20459;-55
2021/07/07 02:19:05;;;;;;;75.90;59.17;;;;;;;;;;5115203;28;20461;-56
2021/07/07 02:21:43;;;;;;;12.00;7.60;;;;;;;;;;5095379;28;20468;-54
2021/07/07 02:24:17;;;;;;;20.37;12.73;;;;;;;;;;5095386;28;20498;-53
2021/07/07 02:26:45;;;;;;;29.43;18.53;;;;;;;;;;5094706;28;20579;-52
2021/07/07 02:29:13;;;;;;;51.43;31.23;;;;;;;;;;5095055;28;20448;-54
2021/07/07 02:31:41;;;;;;;216.13;115.17;;;;;;;;;;5094807;28;20456;-55
2021/07/07 02:34:08;;;;;;;90.83;44.77;;;;;;;;;;5098271;28;20431;-54
2021/07/07 02:36:35;;;;;;;91.50;42.93;;;;;;;;;;5112864;28;20451;-55
2021/07/07 02:39:03;;;;;;;95.63;47.73;;;;;;;;;;5109843;28;20560;-54
2021/07/07 02:41:32;;;;;;;124.27;60.60;;;;;;;;;;5112708;28;20722;-56
2021/07/07 02:43:59;;;;;;;87.80;45.27;;;;;;;;;;5115211;28;20486;-53
2021/07/07 02:46:46;;;;;;;44.33;24.03;;;;;;;;;;5115204;28;20458;-56
2021/07/07 02:49:13;;;;;;;85.13;45.60;;;;;;;;;;5115360;28;20458;-51
2021/07/07 02:51:40;;;;;;;14.93;6.13;;;;;;;;;;5115093;28;20444;-56
2021/07/07 02:54:19;;;;;;;6.73;3.07;;;;;;;;;;5114327;28;20492;-56
2021/07/07 02:56:46;;;;;;;12.80;5.30;;;;;;;;;;5114440;28;20447;-57
2021/07/07 02:59:14;;;;;;;29.40;16.30;;;;;;;;;;5118341;28;20446;-53
2021/07/07 03:01:48;;;;;;;27.63;11.40;;;;;;;;;;5134934;28;20448;-57
2021/07/07 03:04:24;;;;;;;40.00;22.30;;;;;;;;;;5134619;28;20533;-54
2021/07/07 03:06:52;;;;;;;24.83;12.03;;;;;;;;;;5122412;28;20460;-60
2021/07/07 03:09:19;;;;;;;24.83;10.90;;;;;;;;;;5108247;28;20474;-54
2021/07/07 03:11:47;;;;;;;21.10;8.40;;;;;;;;;;5122956;28;20450;-56
2021/07/07 03:14:21;;;;;;;15.90;7.43;;;;;;;;;;5134793;28;20451;-57
2021/07/07 03:16:49;;;;;;;15.30;8.33;;;;;;;;;;5120970;28;20479;-55
2021/07/07 03:19:17;;;;;;;25.93;12.90;;;;;;;;;;5115135;28;20455;-52
2021/07/07 03:21:53;;;;;;;15.00;4.87;;;;;;;;;;5114234;28;20459;-56
2021/07/07 03:24:27;;;;;;;19.23;9.73;;;;;;;;;;5116303;28;20490;-53
2021/07/07 03:29:46;;;;;;;8.80;5.00;;;;;;;;;;5113210;28;20898;-55
2021/07/07 03:32:25;;;;;;;21.60;15.10;;;;;;;;;;5106131;28;20431;-54
2021/07/07 03:35:00;;;;;;;15.27;8.30;;;;;;;;;;5111213;28;20451;-55
2021/07/07 03:37:28;;;;;;;19.17;10.03;;;;;;;;;;5111138;28;20505;-57
2021/07/07 03:39:55;;;;;;;12.13;6.37;;;;;;;;;;5102134;28;20454;-55
2021/07/07 03:42:26;;;;;;;14.03;6.63;;;;;;;;;;5104539;28;20443;-56
2021/07/07 03:44:54;;;;;;;8.00;4.10;;;;;;;;;;5113241;28;20548;-56
2021/07/07 03:47:29;;;;;;;8.93;4.00;;;;;;;;;;5115244;28;20497;-51
2021/07/07 03:49:57;;;;;;;10.30;2.70;;;;;;;;;;5115113;28;20459;-56
2021/07/07 03:52:26;;;;;;;10.20;4.80;;;;;;;;;;5115851;28;20448;-57
2021/07/07 03:54:54;;;;;;;7.40;2.87;;;;;;;;;;5103918;28;20441;-56
2021/07/07 03:57:21;;;;;;;6.40;2.40;;;;;;;;;;5094684;28;20448;-55
2021/07/07 03:59:50;;;;;;;14.67;3.13;;;;;;;;;;5106237;28;20456;-56
2021/07/07 04:02:18;;;;;;;5.90;3.00;;;;;;;;;;5115273;28;20800;-54
2021/07/07 04:04:47;;;;;;;5.77;2.23;;;;;;;;;;5111455;28;20480;-52
2021/07/07 04:07:33;;;;;;;27.67;2.80;;;;;;;;;;5097463;28;20495;-56
2021/07/07 04:10:00;;;;;;;8.77;3.20;;;;;;;;;;5110716;28;20471;-55
2021/07/07 04:12:38;;;;;;;10.60;3.10;;;;;;;;;;5119330;28;20466;-55
2021/07/07 04:15:29;;;;;;;8.60;2.90;;;;;;;;;;5118662;28;20458;-55
2021/07/07 04:17:57;;;;;;;9.93;3.37;;;;;;;;;;5116858;28;20487;-55
2021/07/07 04:20:26;;;;;;;16.13;3.33;;;;;;;;;;5118258;28;20466;-55
2021/07/07 04:23:00;;;;;;;7.03;2.87;;;;;;;;;;5118634;28;20459;-57
2021/07/07 04:25:27;;;;;;;7.60;2.83;;;;;;;;;;5097324;28;20510;-57
2021/07/07 04:27:54;;;;;;;10.60;2.90;;;;;;;;;;5098479;28;20467;-55
2021/07/07 04:30:35;;;;;;;7.93;3.13;;;;;;;;;;5098029;28;20525;-57
2021/07/07 04:33:03;;;;;;;5.23;2.50;;;;;;;;;;5097446;28;20475;-57
2021/07/07 04:35:35;;;;;;;5.37;1.93;;;;;;;;;;5097935;28;20490;-57
2021/07/07 04:38:04;;;;;;;8.53;2.63;;;;;;;;;;5099127;28;20452;-54
2021/07/07 04:40:32;;;;;;;10.10;2.40;;;;;;;;;;5097790;28;20444;-58
2021/07/07 04:42:59;;;;;;;5.93;1.70;;;;;;;;;;5098392;28;20436;-51
2021/07/07 04:48:30;;;;;;;20.87;4.33;;;;;;;;;;5097636;28;20408;-57
2021/07/07 04:50:59;;;;;;;9.13;2.83;;;;;;;;;;5112513;28;20473;-54
2021/07/07 04:53:26;;;;;;;15.83;3.43;;;;;;;;;;5118279;28;20442;-58
2021/07/07 04:56:04;;;;;;;12.27;2.33;;;;;;;;;;5117919;28;20466;-54
2021/07/07 04:58:34;;;;;;;7.87;2.93;;;;;;;;;;5103136;28;20452;-57
2021/07/07 05:01:02;;;;;;;5.20;3.10;;;;;;;;;;5097812;28;20456;-56
2021/07/07 05:03:42;;;;;;;5.20;2.30;;;;;;;;;;5097498;28;20448;-54
2021/07/07 05:06:11;;;;;;;6.13;2.00;;;;;;;;;;5097305;28;20492;-58
2021/07/07 05:08:39;;;;;;;7.97;2.43;;;;;;;;;;5110601;28;20514;-56
2021/07/07 05:11:34;;;;;;;4.40;2.80;;;;;;;;;;5117685;28;20489;-57
2021/07/07 05:14:02;;;;;;;6.83;2.70;;;;;;;;;;5113630;28;20558;-58
2021/07/07 05:16:29;;;;;;;12.80;2.60;;;;;;;;;;5097074;28;20463;-57
2021/07/07 05:18:58;;;;;;;8.50;2.57;;;;;;;;;;5095731;28;20459;-55
2021/07/07 05:21:29;;;;;;;10.27;2.97;;;;;;;;;;5096858;28;20448;-57
2021/07/07 05:24:05;;;;;;;6.43;2.57;;;;;;;;;;5109768;28;20801;-54
2021/07/07 05:26:35;;;;;;;6.13;2.50;;;;;;;;;;5116252;28;20753;-56
2021/07/07 05:29:02;;;;;;;7.90;2.17;;;;;;;;;;5117531;28;20490;-57
2021/07/07 05:31:40;;;;;;;9.47;2.80;;;;;;;;;;5116557;28;20455;-60
2021/07/07 05:34:17;;;;;;;15.63;3.30;;;;;;;;;;5115425;28;21003;-57
2021/07/07 05:36:48;;;;;;;6.07;2.50;;;;;;;;;;5116351;28;20530;-54
2021/07/07 05:39:15;;;;;;;6.30;2.57;;;;;;;;;;5116679;28;20461;-57
2021/07/07 05:41:43;;;;;;;4.00;1.70;;;;;;;;;;5117024;28;20460;-56
2021/07/07 05:44:23;;;;;;;3.03;1.50;;;;;;;;;;5117766;28;20459;-57
2021/07/07 05:46:51;;;;;;;4.13;2.10;;;;;;;;;;5117311;28;20494;-57
2021/07/07 05:49:19;;;;;;;6.70;1.93;;;;;;;;;;5116488;28;20573;-54
2021/07/07 05:52:05;;;;;;;5.10;1.90;;;;;;;;;;5115816;28;20463;-58
2021/07/07 05:54:36;;;;;;;4.80;2.10;;;;;;;;;;5116108;28;20451;-56
2021/07/07 05:57:04;;;;;;;8.50;2.80;;;;;;;;;;5116563;28;20451;-57
2021/07/07 05:59:32;;;;;;;9.30;2.13;;;;;;;;;;5116022;28;20450;-57
2021/07/07 06:01:59;;;;;;;10.43;2.53;;;;;;;;;;5115824;28;20459;-57
2021/07/07 06:04:27;;;;;;;3.53;1.83;;;;;;;;;;5115998;28;20447;-57
2021/07/07 06:07:04;;;;;;;11.10;2.93;;;;;;;;;;5098306;28;20566;-58
2021/07/07 06:09:31;;;;;;;6.03;2.47;;;;;;;;;;5115446;28;20504;-59
2021/07/07 06:11:59;;;;;;;5.47;2.10;;;;;;;;;;5115526;28;20530;-55
2021/07/07 06:14:27;;;;;;;6.20;2.57;;;;;;;;;;5114810;28;20447;-57
2021/07/07 06:16:55;;;;;;;9.83;3.00;;;;;;;;;;5115021;28;20428;-56
2021/07/07 06:19:22;;;;;;;7.73;2.10;;;;;;;;;;5114925;28;20458;-56
2021/07/07 06:22:09;;;;;;;5.83;2.27;;;;;;;;;;5115441;28;20973;-59
2021/07/07 06:24:39;;;;;;;9.47;2.37;;;;;;;;;;5114840;28;20450;-57
2021/07/07 06:27:08;;;;;;;7.80;2.50;;;;;;;;;;5114411;28;20562;-58
2021/07/07 06:29:45;;;;;;;5.60;2.60;;;;;;;;;;5113715;28;20440;-57
2021/07/07 06:32:14;;;;;;;7.50;2.57;;;;;;;;;;5114999;28;20831;-62
2021/07/07 06:34:41;;;;;;;9.63;2.07;;;;;;;;;;5113669;28;20502;-58
2021/07/07 06:37:34;;;;;;;6.10;2.90;;;;;;;;;;5113785;28;20443;-58
2021/07/07 06:40:03;;;;;;;3.50;1.93;;;;;;;;;;5114008;28;20443;-57
2021/07/07 06:42:31;;;;;;;5.30;2.20;;;;;;;;;;5113547;28;20498;-55
2021/07/07 06:44:58;;;;;;;7.77;3.60;;;;;;;;;;5111815;28;20726;-57
2021/07/07 06:47:26;;;;;;;10.17;2.63;;;;;;;;;;5100552;28;20652;-58
2021/07/07 06:49:56;;;;;;;9.10;2.43;;;;;;;;;;5095249;28;20434;-55
2021/07/07 06:52:24;;;;;;;8.70;2.10;;;;;;;;;;5113654;28;20516;-58
2021/07/07 06:55:04;;;;;;;4.10;2.60;;;;;;;;;;5094263;28;20460;-58
2021/07/07 06:57:35;;;;;;;10.07;2.17;;;;;;;;;;5106607;28;20455;-58
2021/07/07 07:00:05;;;;;;;5.60;1.87;;;;;;;;;;5094556;28;20475;-58
2021/07/07 07:02:35;;;;;;;5.70;2.07;;;;;;;;;;5102770;28;20466;-54
2021/07/07 07:05:12;;;;;;;4.77;1.90;;;;;;;;;;5098831;28;20481;-58
2021/07/07 07:07:39;;;;;;;5.60;2.37;;;;;;;;;;5100636;28;20451;-57
2021/07/07 07:10:07;;;;;;;5.63;2.00;;;;;;;;;;5103143;28;20452;-58
2021/07/07 07:12:44;;;;;;;5.13;1.97;;;;;;;;;;5092451;28;20452;-55
2021/07/07 07:15:16;;;;;;;9.73;2.30;;;;;;;;;;5106553;28;20483;-60
2021/07/07 07:17:45;;;;;;;6.50;2.47;;;;;;;;;;5100288;28;20538;-57
2021/07/07 07:20:47;;;;;;;7.73;2.47;;;;;;;;;;5093610;28;20452;-59
2021/07/07 07:23:18;;;;;;;10.63;2.60;;;;;;;;;;5096904;28;20852;-59
2021/07/07 07:25:49;;;;;;;8.83;2.73;;;;;;;;;;5092358;28;20526;-57
2021/07/07 07:28:32;;;;;;;7.77;2.37;;;;;;;;;;5103944;28;20470;-62
2021/07/07 07:33:49;;;;;;;7.47;2.93;;;;;;;;;;5092657;28;20487;-59
2021/07/07 07:36:18;;;;;;;12.27;2.80;;;;;;;;;;5092614;28;20452;-59
2021/07/07 07:38:47;;;;;;;6.60;2.30;;;;;;;;;;5094938;28;20460;-58
2021/07/07 07:41:15;;;;;;;5.10;2.50;;;;;;;;;;5102820;28;20439;-58
2021/07/07 07:44:01;;;;;;;8.23;3.10;;;;;;;;;;5111444;28;20506;-60
2021/07/07 07:46:31;;;;;;;11.53;2.77;;;;;;;;;;5111111;28;20568;-56
2021/07/07 07:49:22;;;;;;;5.53;2.20;;;;;;;;;;5112816;28;20464;-58
2021/07/07 07:51:54;;;;;;;4.90;2.60;;;;;;;;;;5110436;28;20858;-58
2021/07/07 07:54:22;;;;;;;5.73;2.20;;;;;;;;;;5098194;28;20467;-59
2021/07/07 07:57:00;;;;;;;7.17;2.10;;;;;;;;;;5094383;28;20468;-60
2021/07/07 07:59:28;;;;;;;5.13;2.30;;;;;;;;;;5113029;28;20459;-60
2021/07/07 08:01:56;;;;;;;7.10;3.40;;;;;;;;;;5093094;28;20496;-60
2021/07/07 08:04:24;;;;;;;6.03;2.13;;;;;;;;;;5062698;28;20429;-61
2021/07/07 08:06:51;;;;;;;7.50;1.97;;;;;;;;;;5067791;28;20477;-58
2021/07/07 08:09:18;;;;;;;5.80;1.77;;;;;;;;;;5065087;28;20461;-56
2021/07/07 08:12:15;;;;;;;5.67;1.87;;;;;;;;;;5068511;28;20575;-59
2021/07/07 08:14:44;;;;;;;3.43;1.77;;;;;;;;;;5070811;28;20880;-57
2021/07/07 08:17:12;;;;;;;6.53;2.27;;;;;;;;;;5064943;28;20524;-58
2021/07/07 08:19:46;;;;;;;9.00;2.77;;;;;;;;;;5060754;28;20461;-58
2021/07/07 08:25:13;;;;;;;4.93;1.93;;;;;;;;;;5071013;28;20510;-57
2021/07/07 08:27:40;;;;;;;6.20;2.20;;;;;;;;;;5058195;28;20500;-57
2021/07/07 08:30:15;;;;;;;4.60;2.27;;;;;;;;;;5055040;28;20492;-59
2021/07/07 08:32:44;;;;;;;5.13;2.30;;;;;;;;;;5064387;28;20468;-59
2021/07/07 08:35:12;;;;;;;8.57;3.13;;;;;;;;;;5057450;28;20561;-57
2021/07/07 08:37:43;;;;;;;3.20;1.93;;;;;;;;;;5070006;28;20457;-57
2021/07/07 08:40:30;;;;;;;6.60;2.40;;;;;;;;;;5066831;28;20453;-56
2021/07/07 08:42:59;;;;;;;5.47;2.10;;;;;;;;;;5062798;28;20460;-59
2021/07/07 08:45:28;;;;;;;5.90;1.97;;;;;;;;;;5072102;28;20507;-59
2021/07/07 08:48:04;;;;;;;6.33;3.00;;;;;;;;;;5069043;28;20463;-59
2021/07/07 08:50:59;;;;;;;13.57;2.60;;;;;;;;;;5074231;28;20464;-59
2021/07/07 08:53:55;;;;;;;13.20;4.50;;;;;;;;;;5076642;28;20495;-58
2021/07/07 08:56:23;;;;;;;8.27;2.53;;;;;;;;;;5056317;28;20484;-58
2021/07/07 08:58:52;;;;;;;4.93;2.43;;;;;;;;;;5072821;28;20457;-59
2021/07/07 09:01:25;;;;;;;9.20;2.50;;;;;;;;;;5055220;28;20436;-60
2021/07/07 09:03:52;;;;;;;5.40;2.87;;;;;;;;;;5038131;28;20441;-59
2021/07/07 09:06:21;;;;;;;7.57;2.50;;;;;;;;;;5053474;28;20498;-60
2021/07/07 09:08:57;;;;;;;7.20;2.30;;;;;;;;;;5052689;28;20463;-59
2021/07/07 09:11:37;;;;;;;12.63;3.33;;;;;;;;;;5035248;28;20455;-60
2021/07/07 09:14:14;;;;;;;4.50;1.90;;;;;;;;;;5032142;28;20724;-60
2021/07/07 09:16:56;;;;;;;5.70;2.80;;;;;;;;;;5054022;28;20471;-57
2021/07/07 09:19:26;;;;;;;9.50;2.80;;;;;;;;;;5041819;28;20464;-58
2021/07/07 09:21:54;;;;;;;6.60;3.07;;;;;;;;;;5034243;28;20444;-59
2021/07/07 09:24:29;;;;;;;7.13;2.47;;;;;;;;;;5064374;28;20478;-58
2021/07/07 09:27:03;;;;;;;8.00;2.20;;;;;;;;;;5072848;28;20492;-59
2021/07/07 09:29:42;;;;;;;8.83;2.30;;;;;;;;;;5065734;28;20480;-61
2021/07/07 09:32:17;;;;;;;7.37;3.07;;;;;;;;;;5054700;28;20449;-57
2021/07/07 09:34:46;;;;;;;7.40;3.47;;;;;;;;;;5055682;28;20453;-56
2021/07/07 09:37:22;;;;;;;7.93;2.50;;;;;;;;;;5033900;28;20458;-55
2021/07/07 09:39:54;;;;;;;8.30;3.00;;;;;;;;;;5033588;28;20459;-58
2021/07/07 09:42:25;;;;;;;8.67;2.50;;;;;;;;;;5037184;28;20495;-58
2021/07/07 09:44:54;;;;;;;9.33;2.20;;;;;;;;;;5061172;28;20480;-59
2021/07/07 09:47:25;;;;;;;4.83;2.30;;;;;;;;;;5057555;28;20500;-60
2021/07/07 09:49:52;;;;;;;4.83;1.93;;;;;;;;;;5046590;28;20540;-58
2021/07/07 09:52:33;;;;;;;5.33;1.70;;;;;;;;;;5036084;28;20502;-60
2021/07/07 09:55:08;;;;;;;8.00;2.27;;;;;;;;;;5033812;28;20457;-59
2021/07/07 09:57:44;;;;;;;6.80;2.73;;;;;;;;;;5041095;28;20515;-58
2021/07/07 10:00:14;;;;;;;6.87;2.40;;;;;;;;;;5051538;28;20487;-57
2021/07/07 10:02:45;;;;;;;5.80;2.10;;;;;;;;;;5060658;28;20493;-56
2021/07/07 10:05:22;;;;;;;5.13;1.73;;;;;;;;;;5069287;28;20467;-58
2021/07/07 10:07:50;;;;;;;6.73;2.03;;;;;;;;;;5069608;28;20487;-54
2021/07/07 10:10:18;;;;;;;5.37;2.77;;;;;;;;;;5070449;28;20728;-57
2021/07/07 10:12:51;;;;;;;10.17;4.73;;;;;;;;;;5056435;28;20467;-60
2021/07/07 10:15:25;;;;;;;7.17;1.90;;;;;;;;;;5051007;28;20478;-59
2021/07/07 10:17:59;;;;;;;7.00;2.00;;;;;;;;;;5051273;28;20463;-61
2021/07/07 10:20:33;;;;;;;5.47;1.60;;;;;;;;;;5051094;28;20552;-58
2021/07/07 10:23:07;;;;;;;8.90;1.97;;;;;;;;;;5052618;28;20468;-59
2021/07/07 10:25:59;;;;;;;7.43;2.10;;;;;;;;;;5057444;28;20467;-56
2021/07/07 10:28:36;;;;;;;5.03;1.53;;;;;;;;;;5070319;28;20487;-58
2021/07/07 10:31:07;;;;;;;4.50;1.47;;;;;;;;;;5072709;28;20478;-60
2021/07/07 10:33:37;;;;;;;4.97;2.03;;;;;;;;;;5074651;28;20464;-57
2021/07/07 10:36:20;;;;;;;6.40;2.73;;;;;;;;;;5050732;28;20938;-59
2021/07/07 10:38:56;;;;;;;6.53;1.60;;;;;;;;;;5057038;28;20460;-58
2021/07/07 10:41:52;;;;;;;5.03;2.10;;;;;;;;;;5071412;28;20460;-59
2021/07/07 10:44:38;;;;;;;4.80;1.70;;;;;;;;;;5070566;28;20456;-57
2021/07/07 10:47:11;;;;;;;3.37;1.40;;;;;;;;;;5070411;28;20565;-57
2021/07/07 10:49:45;;;;;;;3.13;1.50;;;;;;;;;;5070783;28;20585;-58
2021/07/07 10:52:13;;;;;;;4.53;1.60;;;;;;;;;;5064502;28;20460;-57
2021/07/07 10:54:45;;;;;;;5.40;2.13;;;;;;;;;;5058717;28;20455;-57
2021/07/07 10:57:35;;;;;;;5.40;2.07;;;;;;;;;;5069560;28;20457;-58
2021/07/07 11:00:30;;;;;;;8.47;2.00;;;;;;;;;;5069804;28;20498;-58
2021/07/07 11:03:21;;;;;;;5.77;2.17;;;;;;;;;;5054217;28;20909;-59
2021/07/07 11:05:52;;;;;;;5.87;2.30;;;;;;;;;;5048827;28;20527;-56
2021/07/07 11:08:21;;;;;;;11.67;2.30;;;;;;;;;;5047086;28;20521;-58
2021/07/07 11:10:58;;;;;;;6.23;1.70;;;;;;;;;;5051630;28;20465;-58
2021/07/07 11:13:27;;;;;;;4.30;1.97;;;;;;;;;;5069241;28;20506;-58
2021/07/07 11:15:57;;;;;;;4.70;3.20;;;;;;;;;;5087248;28;20490;-59
2021/07/07 11:18:31;;;;;;;4.10;1.50;;;;;;;;;;5099142;28;20557;-58
2021/07/07 11:21:07;;;;;;;6.10;2.27;;;;;;;;;;5087743;28;20463;-58
2021/07/07 11:23:36;;;;;;;7.03;2.33;;;;;;;;;;5093464;28;20460;-58
2021/07/07 11:26:14;;;;;;;4.10;1.43;;;;;;;;;;5095130;28;20481;-59
2021/07/07 11:28:43;;;;;;;5.03;2.03;;;;;;;;;;5109661;28;20453;-59
2021/07/07 11:31:13;;;;;;;5.00;1.63;;;;;;;;;;5099899;28;20436;-60
2021/07/07 11:33:43;;;;;;;5.63;1.40;;;;;;;;;;5093834;28;20486;-59
2021/07/07 11:36:20;;;;;;;4.80;1.40;;;;;;;;;;5099596;28;20499;-60
2021/07/07 11:38:47;;;;;;;6.63;2.20;;;;;;;;;;5095206;28;20450;-56
2021/07/07 11:41:18;;;;;;;11.47;1.90;;;;;;;;;;5101413;28;20523;-62
2021/07/07 11:43:45;;;;;;;6.37;1.33;;;;;;;;;;5089575;28;20460;-59
2021/07/07 11:46:14;;;;;;;6.83;3.33;;;;;;;;;;5092242;28;20464;-59
2021/07/07 11:48:43;;;;;;;6.37;3.00;;;;;;;;;;5105749;28;20491;-58
2021/07/07 11:51:37;;;;;;;5.50;2.43;;;;;;;;;;5093343;28;20493;-60
2021/07/07 11:54:42;;;;;;;8.03;2.73;;;;;;;;;;5105249;28;20459;-57
2021/07/07 11:57:11;;;;;;;8.17;5.23;;;;;;;;;;5072608;28;20484;-58
2021/07/07 11:59:39;;;;;;;6.73;2.07;;;;;;;;;;5051588;28;20568;-57
2021/07/07 12:02:17;;;;;;;8.57;3.07;;;;;;;;;;5057584;28;20457;-60
2021/07/07 12:04:46;;;;;;;3.23;1.47;;;;;;;;;;5062172;28;20527;-58
2021/07/07 12:07:14;;;;;;;6.13;2.00;;;;;;;;;;5065509;28;20516;-57
2021/07/07 12:09:45;;;;;;;2.77;1.37;;;;;;;;;;5046336;28;20458;-56
2021/07/07 12:12:16;;;;;;;4.43;1.67;;;;;;;;;;5054699;28;20445;-57
2021/07/07 12:14:44;;;;;;;2.80;1.27;;;;;;;;;;5065713;28;20504;-57
2021/07/07 12:17:16;;;;;;;3.93;1.90;;;;;;;;;;5053433;28;20500;-59
2021/07/07 12:19:47;;;;;;;4.30;1.97;;;;;;;;;;5059784;28;20496;-58
2021/07/07 12:22:20;;;;;;;7.00;3.77;;;;;;;;;;5059007;28;20454;-58
2021/07/07 12:24:47;;;;;;;5.60;1.93;;;;;;;;;;5049982;28;20442;-58
2021/07/07 12:27:29;;;;;;;4.60;2.13;;;;;;;;;;5069226;28;20488;-56
2021/07/07 12:29:58;;;;;;;3.50;1.83;;;;;;;;;;5060787;28;20804;-57
2021/07/07 12:32:27;;;;;;;3.83;1.97;;;;;;;;;;5058446;28;20476;-57
2021/07/07 12:35:03;;;;;;;4.97;2.33;;;;;;;;;;5072156;28;20457;-56
2021/07/07 12:37:32;;;;;;;4.07;2.17;;;;;;;;;;5064364;28;20460;-59
2021/07/07 12:40:04;;;;;;;4.33;2.20;;;;;;;;;;5063750;28;20446;-60
2021/07/07 12:42:40;;;;;;;5.70;2.27;;;;;;;;;;5062708;28;20453;-56
2021/07/07 12:45:13;;;;;;;3.60;1.57;;;;;;;;;;5070634;28;20540;-56
2021/07/07 12:47:42;;;;;;;5.00;1.90;;;;;;;;;;5070864;28;20515;-56
2021/07/07 12:50:17;;;;;;;6.80;3.00;;;;;;;;;;5067396;28;20476;-59
2021/07/07 12:53:06;;;;;;;6.33;2.67;;;;;;;;;;5060374;28;20476;-57
2021/07/07 12:56:02;;;;;;;8.70;4.20;;;;;;;;;;5053962;28;20458;-58
2021/07/07 12:59:12;;;;;;;7.87;2.83;;;;;;;;;;5085976;28;20517;-58
2021/07/07 13:01:43;;;;;;;7.83;2.23;;;;;;;;;;5106704;28;20452;-60
2021/07/07 13:04:28;;;;;;;6.00;2.10;;;;;;;;;;5120453;28;20663;-58
2021/07/07 13:07:13;;;;;;;5.27;2.03;;;;;;;;;;5104645;28;20471;-57
2021/07/07 13:10:00;;;;;;;6.80;1.90;;;;;;;;;;5106051;28;20490;-59
2021/07/07 13:12:29;;;;;;;8.03;2.13;;;;;;;;;;5092587;28;20478;-57
2021/07/07 13:14:57;;;;;;;10.53;5.80;;;;;;;;;;5090901;28;20464;-57
2021/07/07 13:17:30;;;;;;;9.70;3.93;;;;;;;;;;5093811;28;20503;-59
2021/07/07 13:20:07;;;;;;;7.07;3.07;;;;;;;;;;5125935;28;20459;-59
2021/07/07 13:22:46;;;;;;;7.90;2.93;;;;;;;;;;5093750;28;20569;-60
2021/07/07 13:25:44;;;;;;;4.30;2.17;;;;;;;;;;5106940;28;20456;-58
2021/07/07 13:28:32;;;;;;;4.50;2.27;;;;;;;;;;5102946;28;20531;-59
2021/07/07 13:31:00;;;;;;;4.63;2.97;;;;;;;;;;5094710;28;20490;-56
2021/07/07 13:33:41;;;;;;;4.50;2.60;;;;;;;;;;5094817;28;20452;-56
2021/07/07 13:36:08;;;;;;;4.90;2.20;;;;;;;;;;5101023;28;20658;-59
2021/07/07 13:38:35;;;;;;;3.77;1.83;;;;;;;;;;5107515;28;20504;-56
2021/07/07 13:41:09;;;;;;;6.10;2.10;;;;;;;;;;5103879;28;20474;-56
2021/07/07 13:43:58;;;;;;;7.93;4.30;;;;;;;;;;5107587;28;20509;-59
2021/07/07 13:46:56;;;;;;;6.17;2.10;;;;;;;;;;5097911;28;20455;-59
2021/07/07 13:49:26;;;;;;;6.27;2.43;;;;;;;;;;5094031;28;20485;-55
2021/07/07 13:51:53;;;;;;;4.17;2.33;;;;;;;;;;5103092;28;20623;-57
2021/07/07 13:54:56;;;;;;;5.80;2.43;;;;;;;;;;5113407;28;20459;-60
2021/07/07 13:57:23;;;;;;;5.37;2.43;;;;;;;;;;5105182;28;20463;-57
2021/07/07 13:59:51;;;;;;;7.60;2.80;;;;;;;;;;5112794;28;20493;-59
2021/07/07 14:02:19;;;;;;;3.97;1.87;;;;;;;;;;5108478;28;20501;-57
2021/07/07 14:04:48;;;;;;;6.77;2.53;;;;;;;;;;5096807;28;20502;-57
2021/07/07 14:07:23;;;;;;;5.30;2.77;;;;;;;;;;5102206;28;20478;-62
2021/07/07 14:10:01;;;;;;;13.00;7.50;;;;;;;;;;5108454;28;20463;-59
2021/07/07 14:12:29;;;;;;;7.10;3.50;;;;;;;;;;5103690;28;20512;-56
2021/07/07 14:14:56;;;;;;;8.00;3.97;;;;;;;;;;5107250;28;20447;-60
2021/07/07 14:17:25;;;;;;;6.53;2.33;;;;;;;;;;5099306;28;20451;-57
2021/07/07 14:20:19;;;;;;;5.50;2.23;;;;;;;;;;5105230;28;20462;-59
2021/07/07 14:22:47;;;;;;;8.07;4.40;;;;;;;;;;5096426;28;20492;-54
2021/07/07 14:25:18;;;;;;;15.67;7.40;;;;;;;;;;5104542;28;20458;-57
2021/07/07 14:27:47;;;;;;;19.57;13.90;;;;;;;;;;5097325;28;20516;-59
2021/07/07 14:30:16;;;;;;;5.73;2.33;;;;;;;;;;5094896;28;20458;-59
2021/07/07 14:32:55;;;;;;;3.83;1.93;;;;;;;;;;5095529;28;20444;-61
2021/07/07 14:35:30;;;;;;;5.63;2.10;;;;;;;;;;5100186;28;20478;-59
2021/07/07 14:38:12;;;;;;;4.37;1.80;;;;;;;;;;5100422;28;20467;-57
2021/07/07 14:40:42;;;;;;;4.80;2.53;;;;;;;;;;5101238;28;20459;-55
2021/07/07 14:43:10;;;;;;;5.40;3.37;;;;;;;;;;5103099;28;20466;-59
2021/07/07 14:45:39;;;;;;;4.30;1.60;;;;;;;;;;5107425;28;20467;-58
2021/07/07 14:48:07;;;;;;;4.03;2.50;;;;;;;;;;5103624;28;20554;-57
2021/07/07 14:50:35;;;;;;;5.00;2.20;;;;;;;;;;5097937;28;20467;-60
2021/07/07 14:53:10;;;;;;;4.70;2.40;;;;;;;;;;5103424;28;20473;-55
2021/07/07 14:55:48;;;;;;;6.67;4.60;;;;;;;;;;5101959;28;20456;-58
2021/07/07 15:01:30;;;;;;;3.87;1.90;;;;;;;;;;5041362;28;20448;-59
2021/07/07 15:04:18;;;;;;;6.37;2.70;;;;;;;;;;5067276;28;20455;-59
2021/07/07 15:06:55;;;;;;;17.00;12.03;;;;;;;;;;5095294;28;20502;-59
2021/07/07 15:09:26;;;;;;;16.27;10.77;;;;;;;;;;5108591;28;20494;-57
2021/07/07 15:11:57;;;;;;;4.13;1.83;;;;;;;;;;5095123;28;20471;-60
2021/07/07 15:14:38;;;;;;;4.80;1.80;;;;;;;;;;5104594;28;20469;-58
2021/07/07 15:17:12;;;;;;;8.43;5.40;;;;;;;;;;5102278;28;20470;-59
2021/07/07 15:20:01;;;;;;;5.07;2.77;;;;;;;;;;5103520;28;20490;-58
2021/07/07 15:25:48;;;;;;;9.03;5.97;;;;;;;;;;5086506;28;20533;-57
2021/07/07 15:28:18;;;;;;;5.97;4.07;;;;;;;;;;5077513;28;20490;-58